sensor_id;sensor_type;location;lat;lon;timestamp;P1;durP1;ratioP1;P2;durP2;ratioP2
21251;SDS011;10784;50.578;17.878;2023-03-01T00:00:51;77.38;;;24.10;;
21251;SDS011;10784;50.578;17.878;2023-03-01T00:03:28;72.40;;;25.52;;
21251;SDS011;10784;50.578;17.878;2023-03-01T00:06:02;66.30;;;22.67;;
21251;SDS011;10784;50.578;17.878;2023-03-01T00:08:35;53.58;;;22.00;;
21251;SDS011;10784;50.578;17.878;2023-03-01T00:11:10;61.38;;;21.63;;
21251;SDS011;10784;50.578;17.878;2023-03-01T00:13:45;74.35;;;22.95;;
21251;SDS011;10784;50.578;17.878;2023-03-01T00:16:19;92.70;;;25.27;;
21251;SDS011;10784;50.578;17.878;2023-03-01T00:18:53;66.57;;;22.15;;
21251;SDS011;10784;50.578;17.878;2023-03-01T00:21:26;79.25;;;25.25;;
21251;SDS011;10784;50.578;17.878;2023-03-01T00:24:00;76.75;;;23.23;;
21251;SDS011;10784;50.578;17.878;2023-03-01T00:26:33;87.07;;;25.77;;
21251;SDS011;10784;50.578;17.878;2023-03-01T00:29:06;82.60;;;27.27;;
21251;SDS011;10784;50.578;17.878;2023-03-01T00:31:42;79.28;;;27.45;;
21251;SDS011;10784;50.578;17.878;2023-03-01T00:34:15;79.78;;;25.02;;
21251;SDS011;10784;50.578;17.878;2023-03-01T00:36:47;74.50;;;23.98;;
21251;SDS011;10784;50.578;17.878;2023-03-01T00:39:20;69.35;;;28.05;;
21251;SDS011;10784;50.578;17.878;2023-03-01T00:41:53;91.95;;;26.67;;
21251;SDS011;10784;50.578;17.878;2023-03-01T00:44:26;76.28;;;25.13;;
21251;SDS011;10784;50.578;17.878;2023-03-01T00:46:58;83.78;;;27.73;;
21251;SDS011;10784;50.578;17.878;2023-03-01T00:49:31;84.32;;;27.75;;
21251;SDS011;10784;50.578;17.878;2023-03-01T00:52:04;81.68;;;25.77;;
21251;SDS011;10784;50.578;17.878;2023-03-01T00:54:37;83.15;;;25.90;;
21251;SDS011;10784;50.578;17.878;2023-03-01T00:57:09;83.03;;;25.90;;
21251;SDS011;10784;50.578;17.878;2023-03-01T00:59:42;79.50;;;22.80;;
21251;SDS011;10784;50.578;17.878;2023-03-01T01:02:15;75.85;;;24.73;;
21251;SDS011;10784;50.578;17.878;2023-03-01T01:04:50;64.35;;;24.27;;
21251;SDS011;10784;50.578;17.878;2023-03-01T01:07:22;78.03;;;25.02;;
21251;SDS011;10784;50.578;17.878;2023-03-01T01:09:55;69.20;;;24.23;;
21251;SDS011;10784;50.578;17.878;2023-03-01T01:12:28;78.57;;;25.35;;
21251;SDS011;10784;50.578;17.878;2023-03-01T01:15:01;59.33;;;23.38;;
21251;SDS011;10784;50.578;17.878;2023-03-01T01:17:34;68.55;;;25.35;;
21251;SDS011;10784;50.578;17.878;2023-03-01T01:20:07;71.57;;;26.10;;
21251;SDS011;10784;50.578;17.878;2023-03-01T01:22:40;83.38;;;28.10;;
21251;SDS011;10784;50.578;17.878;2023-03-01T01:25:15;63.50;;;24.25;;
21251;SDS011;10784;50.578;17.878;2023-03-01T01:27:48;79.05;;;23.98;;
21251;SDS011;10784;50.578;17.878;2023-03-01T01:30:21;77.68;;;26.02;;
21251;SDS011;10784;50.578;17.878;2023-03-01T01:32:56;74.03;;;27.13;;
21251;SDS011;10784;50.578;17.878;2023-03-01T01:35:31;71.68;;;25.38;;
21251;SDS011;10784;50.578;17.878;2023-03-01T01:38:08;77.90;;;25.70;;
21251;SDS011;10784;50.578;17.878;2023-03-01T01:40:44;65.57;;;23.30;;
21251;SDS011;10784;50.578;17.878;2023-03-01T01:43:23;70.35;;;28.02;;
21251;SDS011;10784;50.578;17.878;2023-03-01T01:45:57;69.22;;;24.42;;
21251;SDS011;10784;50.578;17.878;2023-03-01T01:48:39;81.15;;;25.85;;
21251;SDS011;10784;50.578;17.878;2023-03-01T01:51:16;85.53;;;30.92;;
21251;SDS011;10784;50.578;17.878;2023-03-01T01:53:51;84.25;;;27.92;;
21251;SDS011;10784;50.578;17.878;2023-03-01T01:56:25;98.32;;;32.47;;
21251;SDS011;10784;50.578;17.878;2023-03-01T01:58:59;93.85;;;30.73;;
21251;SDS011;10784;50.578;17.878;2023-03-01T02:01:34;98.80;;;33.50;;
21251;SDS011;10784;50.578;17.878;2023-03-01T02:04:06;95.32;;;32.67;;
21251;SDS011;10784;50.578;17.878;2023-03-01T02:07:04;115.20;;;35.30;;
21251;SDS011;10784;50.578;17.878;2023-03-01T02:09:48;112.55;;;36.70;;
21251;SDS011;10784;50.578;17.878;2023-03-01T02:12:23;113.93;;;32.58;;
21251;SDS011;10784;50.578;17.878;2023-03-01T02:14:56;116.10;;;36.90;;
21251;SDS011;10784;50.578;17.878;2023-03-01T02:17:29;98.63;;;33.33;;
21251;SDS011;10784;50.578;17.878;2023-03-01T02:22:53;102.05;;;34.25;;
21251;SDS011;10784;50.578;17.878;2023-03-01T02:28:08;106.13;;;33.55;;
21251;SDS011;10784;50.578;17.878;2023-03-01T02:30:47;121.22;;;32.97;;
21251;SDS011;10784;50.578;17.878;2023-03-01T02:33:46;91.97;;;33.30;;
21251;SDS011;10784;50.578;17.878;2023-03-01T02:36:22;95.22;;;32.92;;
21251;SDS011;10784;50.578;17.878;2023-03-01T02:38:58;78.55;;;29.80;;
21251;SDS011;10784;50.578;17.878;2023-03-01T02:41:34;79.40;;;30.70;;
21251;SDS011;10784;50.578;17.878;2023-03-01T02:44:10;84.07;;;27.73;;
21251;SDS011;10784;50.578;17.878;2023-03-01T02:46:49;85.15;;;29.13;;
21251;SDS011;10784;50.578;17.878;2023-03-01T02:49:26;82.05;;;27.25;;
21251;SDS011;10784;50.578;17.878;2023-03-01T02:54:51;76.40;;;29.90;;
21251;SDS011;10784;50.578;17.878;2023-03-01T02:57:26;109.28;;;34.70;;
21251;SDS011;10784;50.578;17.878;2023-03-01T03:00:06;103.97;;;34.80;;
21251;SDS011;10784;50.578;17.878;2023-03-01T03:02:40;99.40;;;33.25;;
21251;SDS011;10784;50.578;17.878;2023-03-01T03:05:20;114.32;;;36.10;;
21251;SDS011;10784;50.578;17.878;2023-03-01T03:07:57;97.10;;;34.70;;
21251;SDS011;10784;50.578;17.878;2023-03-01T03:10:34;96.15;;;33.63;;
21251;SDS011;10784;50.578;17.878;2023-03-01T03:13:11;87.50;;;33.60;;
21251;SDS011;10784;50.578;17.878;2023-03-01T03:15:45;85.13;;;32.50;;
21251;SDS011;10784;50.578;17.878;2023-03-01T03:18:17;102.57;;;34.72;;
21251;SDS011;10784;50.578;17.878;2023-03-01T03:20:51;98.85;;;35.58;;
21251;SDS011;10784;50.578;17.878;2023-03-01T03:23:25;88.82;;;30.30;;
21251;SDS011;10784;50.578;17.878;2023-03-01T03:25:58;102.80;;;31.33;;
21251;SDS011;10784;50.578;17.878;2023-03-01T03:28:31;112.40;;;32.35;;
21251;SDS011;10784;50.578;17.878;2023-03-01T03:31:05;109.15;;;33.80;;
21251;SDS011;10784;50.578;17.878;2023-03-01T03:33:44;88.10;;;29.85;;
21251;SDS011;10784;50.578;17.878;2023-03-01T03:36:22;100.57;;;30.30;;
21251;SDS011;10784;50.578;17.878;2023-03-01T03:38:56;86.18;;;27.38;;
21251;SDS011;10784;50.578;17.878;2023-03-01T03:41:29;91.05;;;30.25;;
21251;SDS011;10784;50.578;17.878;2023-03-01T03:44:04;88.53;;;30.13;;
21251;SDS011;10784;50.578;17.878;2023-03-01T03:46:37;78.53;;;29.17;;
21251;SDS011;10784;50.578;17.878;2023-03-01T03:49:11;81.43;;;28.58;;
21251;SDS011;10784;50.578;17.878;2023-03-01T03:51:53;84.53;;;30.15;;
21251;SDS011;10784;50.578;17.878;2023-03-01T03:57:11;84.80;;;26.42;;
21251;SDS011;10784;50.578;17.878;2023-03-01T03:59:43;89.93;;;28.83;;
21251;SDS011;10784;50.578;17.878;2023-03-01T04:02:17;70.95;;;26.70;;
21251;SDS011;10784;50.578;17.878;2023-03-01T04:04:55;69.47;;;25.42;;
21251;SDS011;10784;50.578;17.878;2023-03-01T04:07:28;68.90;;;25.70;;
21251;SDS011;10784;50.578;17.878;2023-03-01T04:10:02;91.95;;;26.65;;
21251;SDS011;10784;50.578;17.878;2023-03-01T04:12:40;79.78;;;25.08;;
21251;SDS011;10784;50.578;17.878;2023-03-01T04:15:18;82.00;;;29.05;;
21251;SDS011;10784;50.578;17.878;2023-03-01T04:17:52;71.60;;;25.73;;
21251;SDS011;10784;50.578;17.878;2023-03-01T04:20:26;77.28;;;28.63;;
21251;SDS011;10784;50.578;17.878;2023-03-01T04:25:57;99.82;;;29.38;;
21251;SDS011;10784;50.578;17.878;2023-03-01T04:28:34;75.28;;;26.63;;
21251;SDS011;10784;50.578;17.878;2023-03-01T04:31:09;77.72;;;24.42;;
21251;SDS011;10784;50.578;17.878;2023-03-01T04:33:51;89.25;;;29.45;;
21251;SDS011;10784;50.578;17.878;2023-03-01T04:36:25;87.43;;;27.98;;
21251;SDS011;10784;50.578;17.878;2023-03-01T04:38:59;79.07;;;23.60;;
21251;SDS011;10784;50.578;17.878;2023-03-01T04:41:32;73.15;;;28.63;;
21251;SDS011;10784;50.578;17.878;2023-03-01T04:44:06;63.72;;;26.13;;
21251;SDS011;10784;50.578;17.878;2023-03-01T04:46:39;76.10;;;27.25;;
21251;SDS011;10784;50.578;17.878;2023-03-01T04:49:16;90.82;;;30.65;;
21251;SDS011;10784;50.578;17.878;2023-03-01T04:51:51;83.50;;;27.95;;
21251;SDS011;10784;50.578;17.878;2023-03-01T04:54:24;108.20;;;35.17;;
21251;SDS011;10784;50.578;17.878;2023-03-01T04:56:57;79.63;;;27.98;;
21251;SDS011;10784;50.578;17.878;2023-03-01T04:59:30;92.75;;;31.02;;
21251;SDS011;10784;50.578;17.878;2023-03-01T05:02:02;81.70;;;28.25;;
21251;SDS011;10784;50.578;17.878;2023-03-01T05:04:35;78.97;;;26.02;;
21251;SDS011;10784;50.578;17.878;2023-03-01T05:07:08;76.18;;;27.27;;
21251;SDS011;10784;50.578;17.878;2023-03-01T05:09:41;75.85;;;26.35;;
21251;SDS011;10784;50.578;17.878;2023-03-01T05:12:14;68.50;;;25.88;;
21251;SDS011;10784;50.578;17.878;2023-03-01T05:14:47;70.60;;;24.95;;
21251;SDS011;10784;50.578;17.878;2023-03-01T05:17:20;69.05;;;24.75;;
21251;SDS011;10784;50.578;17.878;2023-03-01T05:19:53;79.55;;;27.52;;
21251;SDS011;10784;50.578;17.878;2023-03-01T05:22:27;72.30;;;23.48;;
21251;SDS011;10784;50.578;17.878;2023-03-01T05:25:01;82.65;;;29.40;;
21251;SDS011;10784;50.578;17.878;2023-03-01T05:27:34;80.50;;;28.10;;
21251;SDS011;10784;50.578;17.878;2023-03-01T05:30:07;88.45;;;30.48;;
21251;SDS011;10784;50.578;17.878;2023-03-01T05:32:47;71.20;;;26.40;;
21251;SDS011;10784;50.578;17.878;2023-03-01T05:35:21;76.22;;;28.17;;
21251;SDS011;10784;50.578;17.878;2023-03-01T05:37:54;79.88;;;28.45;;
21251;SDS011;10784;50.578;17.878;2023-03-01T05:40:27;83.75;;;26.60;;
21251;SDS011;10784;50.578;17.878;2023-03-01T05:42:59;77.10;;;27.95;;
21251;SDS011;10784;50.578;17.878;2023-03-01T05:45:33;73.50;;;28.30;;
21251;SDS011;10784;50.578;17.878;2023-03-01T05:48:08;88.78;;;27.70;;
21251;SDS011;10784;50.578;17.878;2023-03-01T05:50:42;89.18;;;29.52;;
21251;SDS011;10784;50.578;17.878;2023-03-01T05:53:16;76.65;;;26.42;;
21251;SDS011;10784;50.578;17.878;2023-03-01T05:55:49;134.07;;;39.90;;
21251;SDS011;10784;50.578;17.878;2023-03-01T05:58:23;130.55;;;40.28;;
21251;SDS011;10784;50.578;17.878;2023-03-01T06:00:56;83.30;;;31.23;;
21251;SDS011;10784;50.578;17.878;2023-03-01T06:03:30;93.68;;;27.48;;
21251;SDS011;10784;50.578;17.878;2023-03-01T06:06:03;85.60;;;31.33;;
21251;SDS011;10784;50.578;17.878;2023-03-01T06:08:35;96.22;;;32.58;;
21251;SDS011;10784;50.578;17.878;2023-03-01T06:11:08;111.15;;;37.35;;
21251;SDS011;10784;50.578;17.878;2023-03-01T06:13:42;125.00;;;38.85;;
21251;SDS011;10784;50.578;17.878;2023-03-01T06:16:15;130.20;;;40.00;;
21251;SDS011;10784;50.578;17.878;2023-03-01T06:18:47;135.52;;;43.25;;
21251;SDS011;10784;50.578;17.878;2023-03-01T06:21:20;111.32;;;38.35;;
21251;SDS011;10784;50.578;17.878;2023-03-01T06:23:53;136.88;;;43.80;;
21251;SDS011;10784;50.578;17.878;2023-03-01T06:26:26;105.68;;;37.20;;
21251;SDS011;10784;50.578;17.878;2023-03-01T06:28:59;99.90;;;35.50;;
21251;SDS011;10784;50.578;17.878;2023-03-01T06:31:31;107.45;;;39.13;;
21251;SDS011;10784;50.578;17.878;2023-03-01T06:34:04;79.65;;;30.23;;
21251;SDS011;10784;50.578;17.878;2023-03-01T06:36:37;74.28;;;27.08;;
21251;SDS011;10784;50.578;17.878;2023-03-01T06:39:10;60.10;;;23.90;;
21251;SDS011;10784;50.578;17.878;2023-03-01T06:41:43;65.93;;;22.63;;
21251;SDS011;10784;50.578;17.878;2023-03-01T06:44:16;72.32;;;21.10;;
21251;SDS011;10784;50.578;17.878;2023-03-01T06:46:49;73.72;;;19.70;;
21251;SDS011;10784;50.578;17.878;2023-03-01T06:49:21;45.25;;;18.30;;
21251;SDS011;10784;50.578;17.878;2023-03-01T06:51:54;56.67;;;21.17;;
21251;SDS011;10784;50.578;17.878;2023-03-01T06:54:27;53.47;;;18.15;;
21251;SDS011;10784;50.578;17.878;2023-03-01T06:57:00;61.75;;;20.67;;
21251;SDS011;10784;50.578;17.878;2023-03-01T06:59:32;56.28;;;20.30;;
21251;SDS011;10784;50.578;17.878;2023-03-01T07:02:05;53.03;;;19.70;;
21251;SDS011;10784;50.578;17.878;2023-03-01T07:04:38;49.40;;;21.45;;
21251;SDS011;10784;50.578;17.878;2023-03-01T07:07:11;60.15;;;21.65;;
21251;SDS011;10784;50.578;17.878;2023-03-01T07:09:44;72.40;;;21.35;;
21251;SDS011;10784;50.578;17.878;2023-03-01T07:12:17;53.10;;;21.27;;
21251;SDS011;10784;50.578;17.878;2023-03-01T07:14:50;66.55;;;20.83;;
21251;SDS011;10784;50.578;17.878;2023-03-01T07:17:23;68.90;;;22.10;;
21251;SDS011;10784;50.578;17.878;2023-03-01T07:19:56;67.57;;;21.50;;
21251;SDS011;10784;50.578;17.878;2023-03-01T07:22:29;65.07;;;21.80;;
21251;SDS011;10784;50.578;17.878;2023-03-01T07:25:02;52.65;;;22.73;;
21251;SDS011;10784;50.578;17.878;2023-03-01T07:27:34;67.28;;;25.60;;
21251;SDS011;10784;50.578;17.878;2023-03-01T07:30:07;67.57;;;25.15;;
21251;SDS011;10784;50.578;17.878;2023-03-01T07:32:41;74.35;;;24.42;;
21251;SDS011;10784;50.578;17.878;2023-03-01T07:35:14;69.55;;;20.90;;
21251;SDS011;10784;50.578;17.878;2023-03-01T07:37:47;66.60;;;22.63;;
21251;SDS011;10784;50.578;17.878;2023-03-01T07:40:20;54.38;;;21.33;;
21251;SDS011;10784;50.578;17.878;2023-03-01T07:42:56;54.17;;;21.23;;
21251;SDS011;10784;50.578;17.878;2023-03-01T07:45:29;66.55;;;24.77;;
21251;SDS011;10784;50.578;17.878;2023-03-01T07:48:02;64.97;;;23.83;;
21251;SDS011;10784;50.578;17.878;2023-03-01T07:50:35;69.75;;;24.75;;
21251;SDS011;10784;50.578;17.878;2023-03-01T07:53:08;67.78;;;26.17;;
21251;SDS011;10784;50.578;17.878;2023-03-01T07:55:41;71.53;;;25.52;;
21251;SDS011;10784;50.578;17.878;2023-03-01T07:58:14;70.10;;;27.67;;
21251;SDS011;10784;50.578;17.878;2023-03-01T08:00:46;77.28;;;32.47;;
21251;SDS011;10784;50.578;17.878;2023-03-01T08:03:20;68.00;;;24.92;;
21251;SDS011;10784;50.578;17.878;2023-03-01T08:05:52;72.35;;;24.17;;
21251;SDS011;10784;50.578;17.878;2023-03-01T08:08:25;53.45;;;22.70;;
21251;SDS011;10784;50.578;17.878;2023-03-01T08:10:58;48.38;;;22.02;;
21251;SDS011;10784;50.578;17.878;2023-03-01T08:13:32;54.95;;;22.05;;
21251;SDS011;10784;50.578;17.878;2023-03-01T08:16:11;44.90;;;20.70;;
21251;SDS011;10784;50.578;17.878;2023-03-01T08:18:44;52.92;;;20.63;;
21251;SDS011;10784;50.578;17.878;2023-03-01T08:21:16;58.28;;;21.20;;
21251;SDS011;10784;50.578;17.878;2023-03-01T08:23:50;43.13;;;17.95;;
21251;SDS011;10784;50.578;17.878;2023-03-01T08:26:22;56.65;;;19.55;;
21251;SDS011;10784;50.578;17.878;2023-03-01T08:28:56;54.10;;;19.30;;
21251;SDS011;10784;50.578;17.878;2023-03-01T08:31:31;44.50;;;19.15;;
21251;SDS011;10784;50.578;17.878;2023-03-01T08:34:06;53.30;;;19.38;;
21251;SDS011;10784;50.578;17.878;2023-03-01T08:36:40;45.38;;;17.63;;
21251;SDS011;10784;50.578;17.878;2023-03-01T08:39:14;45.70;;;21.83;;
21251;SDS011;10784;50.578;17.878;2023-03-01T08:41:47;61.47;;;21.38;;
21251;SDS011;10784;50.578;17.878;2023-03-01T08:44:20;44.53;;;19.00;;
21251;SDS011;10784;50.578;17.878;2023-03-01T08:46:53;58.50;;;22.48;;
21251;SDS011;10784;50.578;17.878;2023-03-01T08:49:28;64.95;;;22.42;;
21251;SDS011;10784;50.578;17.878;2023-03-01T08:52:01;45.33;;;18.58;;
21251;SDS011;10784;50.578;17.878;2023-03-01T08:54:34;47.80;;;18.17;;
21251;SDS011;10784;50.578;17.878;2023-03-01T08:57:07;58.72;;;20.83;;
21251;SDS011;10784;50.578;17.878;2023-03-01T08:59:42;55.42;;;20.23;;
21251;SDS011;10784;50.578;17.878;2023-03-01T09:02:16;50.85;;;21.75;;
21251;SDS011;10784;50.578;17.878;2023-03-01T09:04:50;41.08;;;18.70;;
21251;SDS011;10784;50.578;17.878;2023-03-01T09:07:22;52.20;;;20.23;;
21251;SDS011;10784;50.578;17.878;2023-03-01T09:10:00;57.70;;;20.77;;
21251;SDS011;10784;50.578;17.878;2023-03-01T09:12:33;57.42;;;21.30;;
21251;SDS011;10784;50.578;17.878;2023-03-01T09:15:06;43.22;;;17.23;;
21251;SDS011;10784;50.578;17.878;2023-03-01T09:17:39;45.25;;;20.98;;
21251;SDS011;10784;50.578;17.878;2023-03-01T09:20:12;52.42;;;21.90;;
21251;SDS011;10784;50.578;17.878;2023-03-01T09:22:44;39.58;;;18.73;;
21251;SDS011;10784;50.578;17.878;2023-03-01T09:25:17;42.10;;;18.55;;
21251;SDS011;10784;50.578;17.878;2023-03-01T09:27:53;42.50;;;15.38;;
21251;SDS011;10784;50.578;17.878;2023-03-01T09:30:26;53.78;;;18.95;;
21251;SDS011;10784;50.578;17.878;2023-03-01T09:32:59;30.00;;;14.45;;
21251;SDS011;10784;50.578;17.878;2023-03-01T09:35:32;41.72;;;16.65;;
21251;SDS011;10784;50.578;17.878;2023-03-01T09:38:04;44.55;;;18.65;;
21251;SDS011;10784;50.578;17.878;2023-03-01T09:40:41;32.83;;;15.05;;
21251;SDS011;10784;50.578;17.878;2023-03-01T09:45:50;41.58;;;17.85;;
21251;SDS011;10784;50.578;17.878;2023-03-01T09:48:26;61.88;;;20.20;;
21251;SDS011;10784;50.578;17.878;2023-03-01T09:51:00;50.45;;;20.90;;
21251;SDS011;10784;50.578;17.878;2023-03-01T09:53:34;44.70;;;17.00;;
21251;SDS011;10784;50.578;17.878;2023-03-01T10:01:40;37.05;;;13.38;;
21251;SDS011;10784;50.578;17.878;2023-03-01T10:04:23;23.38;;;10.60;;
21251;SDS011;10784;50.578;17.878;2023-03-01T10:09:43;23.77;;;10.73;;
21251;SDS011;10784;50.578;17.878;2023-03-01T10:12:18;15.70;;;7.32;;
21251;SDS011;10784;50.578;17.878;2023-03-01T10:15:06;22.83;;;8.63;;
21251;SDS011;10784;50.578;17.878;2023-03-01T10:17:44;20.20;;;7.70;;
21251;SDS011;10784;50.578;17.878;2023-03-01T10:20:26;22.25;;;9.35;;
21251;SDS011;10784;50.578;17.878;2023-03-01T10:22:59;16.48;;;7.30;;
21251;SDS011;10784;50.578;17.878;2023-03-01T10:28:31;20.40;;;8.88;;
21251;SDS011;10784;50.578;17.878;2023-03-01T10:31:03;23.10;;;8.25;;
21251;SDS011;10784;50.578;17.878;2023-03-01T10:33:37;28.83;;;9.00;;
21251;SDS011;10784;50.578;17.878;2023-03-01T10:36:12;19.42;;;8.88;;
21251;SDS011;10784;50.578;17.878;2023-03-01T10:38:49;22.45;;;9.05;;
21251;SDS011;10784;50.578;17.878;2023-03-01T10:41:25;24.63;;;9.15;;
21251;SDS011;10784;50.578;17.878;2023-03-01T10:43:59;25.17;;;9.00;;
21251;SDS011;10784;50.578;17.878;2023-03-01T10:46:33;23.60;;;9.15;;
21251;SDS011;10784;50.578;17.878;2023-03-01T10:49:09;32.28;;;11.18;;
21251;SDS011;10784;50.578;17.878;2023-03-01T10:51:45;30.38;;;10.63;;
21251;SDS011;10784;50.578;17.878;2023-03-01T10:54:24;32.20;;;12.23;;
21251;SDS011;10784;50.578;17.878;2023-03-01T10:56:59;34.47;;;11.45;;
21251;SDS011;10784;50.578;17.878;2023-03-01T10:59:36;29.13;;;10.23;;
21251;SDS011;10784;50.578;17.878;2023-03-01T11:04:57;25.83;;;11.13;;
21251;SDS011;10784;50.578;17.878;2023-03-01T11:07:30;29.00;;;12.52;;
21251;SDS011;10784;50.578;17.878;2023-03-01T11:10:10;21.48;;;10.02;;
21251;SDS011;10784;50.578;17.878;2023-03-01T11:12:43;31.00;;;10.90;;
21251;SDS011;10784;50.578;17.878;2023-03-01T11:15:21;30.67;;;13.77;;
21251;SDS011;10784;50.578;17.878;2023-03-01T11:17:55;26.10;;;10.43;;
21251;SDS011;10784;50.578;17.878;2023-03-01T11:20:44;31.27;;;11.13;;
21251;SDS011;10784;50.578;17.878;2023-03-01T11:23:16;25.98;;;10.40;;
21251;SDS011;10784;50.578;17.878;2023-03-01T11:26:01;32.38;;;12.07;;
21251;SDS011;10784;50.578;17.878;2023-03-01T11:28:36;26.75;;;10.43;;
21251;SDS011;10784;50.578;17.878;2023-03-01T11:31:10;28.15;;;11.43;;
21251;SDS011;10784;50.578;17.878;2023-03-01T11:33:55;35.03;;;13.13;;
21251;SDS011;10784;50.578;17.878;2023-03-01T11:39:50;26.83;;;10.35;;
21251;SDS011;10784;50.578;17.878;2023-03-01T11:42:06;32.08;;;12.35;;
21251;SDS011;10784;50.578;17.878;2023-03-01T11:44:51;29.42;;;10.48;;
21251;SDS011;10784;50.578;17.878;2023-03-01T11:47:47;25.08;;;10.70;;
21251;SDS011;10784;50.578;17.878;2023-03-01T11:50:54;26.90;;;11.50;;
21251;SDS011;10784;50.578;17.878;2023-03-01T11:56:09;30.92;;;12.27;;
21251;SDS011;10784;50.578;17.878;2023-03-01T11:59:03;31.88;;;11.70;;
21251;SDS011;10784;50.578;17.878;2023-03-01T12:04:36;28.55;;;10.65;;
21251;SDS011;10784;50.578;17.878;2023-03-01T12:15:11;15.52;;;7.60;;
21251;SDS011;10784;50.578;17.878;2023-03-01T12:18:30;22.45;;;9.18;;
21251;SDS011;10784;50.578;17.878;2023-03-01T12:34:03;21.70;;;8.90;;
21251;SDS011;10784;50.578;17.878;2023-03-01T12:42:31;24.80;;;11.13;;
21251;SDS011;10784;50.578;17.878;2023-03-01T12:47:53;17.95;;;8.73;;
21251;SDS011;10784;50.578;17.878;2023-03-01T12:53:22;24.30;;;9.68;;
21251;SDS011;10784;50.578;17.878;2023-03-01T12:55:59;22.35;;;8.82;;
21251;SDS011;10784;50.578;17.878;2023-03-01T12:58:41;24.98;;;11.43;;
21251;SDS011;10784;50.578;17.878;2023-03-01T13:04:13;24.95;;;9.88;;
21251;SDS011;10784;50.578;17.878;2023-03-01T13:07:13;22.50;;;8.25;;
21251;SDS011;10784;50.578;17.878;2023-03-01T13:15:26;31.75;;;11.02;;
21251;SDS011;10784;50.578;17.878;2023-03-01T13:18:42;21.40;;;7.53;;
21251;SDS011;10784;50.578;17.878;2023-03-01T13:20:57;21.10;;;9.10;;
21251;SDS011;10784;50.578;17.878;2023-03-01T13:23:35;24.98;;;9.50;;
21251;SDS011;10784;50.578;17.878;2023-03-01T13:26:10;23.98;;;8.10;;
21251;SDS011;10784;50.578;17.878;2023-03-01T13:33:58;32.05;;;9.77;;
21251;SDS011;10784;50.578;17.878;2023-03-01T13:41:55;24.10;;;10.77;;
21251;SDS011;10784;50.578;17.878;2023-03-01T13:44:36;19.85;;;8.63;;
21251;SDS011;10784;50.578;17.878;2023-03-01T13:47:25;30.15;;;10.55;;
21251;SDS011;10784;50.578;17.878;2023-03-01T13:50:00;20.85;;;8.82;;
21251;SDS011;10784;50.578;17.878;2023-03-01T13:57:54;21.45;;;8.15;;
21251;SDS011;10784;50.578;17.878;2023-03-01T14:00:29;22.85;;;8.75;;
21251;SDS011;10784;50.578;17.878;2023-03-01T14:03:04;27.13;;;9.38;;
21251;SDS011;10784;50.578;17.878;2023-03-01T14:05:39;24.80;;;10.95;;
21251;SDS011;10784;50.578;17.878;2023-03-01T14:08:19;35.83;;;10.73;;
21251;SDS011;10784;50.578;17.878;2023-03-01T14:19:19;22.50;;;10.27;;
21251;SDS011;10784;50.578;17.878;2023-03-01T14:24:38;21.50;;;9.07;;
21251;SDS011;10784;50.578;17.878;2023-03-01T14:27:12;25.10;;;10.75;;
21251;SDS011;10784;50.578;17.878;2023-03-01T14:29:56;26.17;;;9.15;;
21251;SDS011;10784;50.578;17.878;2023-03-01T14:32:30;24.30;;;8.05;;
21251;SDS011;10784;50.578;17.878;2023-03-01T14:35:16;18.92;;;8.35;;
21251;SDS011;10784;50.578;17.878;2023-03-01T14:37:51;27.80;;;10.45;;
21251;SDS011;10784;50.578;17.878;2023-03-01T14:40:28;21.60;;;9.05;;
21251;SDS011;10784;50.578;17.878;2023-03-01T14:43:03;27.63;;;11.15;;
21251;SDS011;10784;50.578;17.878;2023-03-01T14:45:42;42.47;;;11.60;;
21251;SDS011;10784;50.578;17.878;2023-03-01T14:48:19;24.77;;;10.68;;
21251;SDS011;10784;50.578;17.878;2023-03-01T14:50:52;19.77;;;9.05;;
21251;SDS011;10784;50.578;17.878;2023-03-01T14:53:26;21.15;;;7.65;;
21251;SDS011;10784;50.578;17.878;2023-03-01T14:56:00;26.48;;;9.70;;
21251;SDS011;10784;50.578;17.878;2023-03-01T14:58:34;20.55;;;9.27;;
21251;SDS011;10784;50.578;17.878;2023-03-01T15:01:10;43.47;;;13.90;;
21251;SDS011;10784;50.578;17.878;2023-03-01T15:03:48;36.90;;;11.55;;
21251;SDS011;10784;50.578;17.878;2023-03-01T15:06:22;32.20;;;13.40;;
21251;SDS011;10784;50.578;17.878;2023-03-01T15:08:55;44.17;;;14.52;;
21251;SDS011;10784;50.578;17.878;2023-03-01T15:11:30;64.68;;;16.38;;
21251;SDS011;10784;50.578;17.878;2023-03-01T15:14:05;30.88;;;11.07;;
21251;SDS011;10784;50.578;17.878;2023-03-01T15:16:56;82.35;;;18.33;;
21251;SDS011;10784;50.578;17.878;2023-03-01T15:19:29;28.40;;;10.77;;
21251;SDS011;10784;50.578;17.878;2023-03-01T15:22:02;20.10;;;8.95;;
21251;SDS011;10784;50.578;17.878;2023-03-01T15:24:50;22.25;;;9.23;;
21251;SDS011;10784;50.578;17.878;2023-03-01T15:27:23;30.63;;;9.27;;
21251;SDS011;10784;50.578;17.878;2023-03-01T15:30:00;25.10;;;8.43;;
21251;SDS011;10784;50.578;17.878;2023-03-01T15:32:35;20.45;;;7.95;;
21251;SDS011;10784;50.578;17.878;2023-03-01T15:40:36;26.58;;;7.35;;
21251;SDS011;10784;50.578;17.878;2023-03-01T15:43:40;25.33;;;8.80;;
21251;SDS011;10784;50.578;17.878;2023-03-01T15:46:23;24.02;;;8.52;;
21251;SDS011;10784;50.578;17.878;2023-03-01T15:49:01;17.38;;;7.47;;
21251;SDS011;10784;50.578;17.878;2023-03-01T15:51:35;19.38;;;7.80;;
21251;SDS011;10784;50.578;17.878;2023-03-01T15:54:13;35.58;;;9.95;;
21251;SDS011;10784;50.578;17.878;2023-03-01T15:56:48;42.03;;;11.35;;
21251;SDS011;10784;50.578;17.878;2023-03-01T15:59:21;28.98;;;10.88;;
21251;SDS011;10784;50.578;17.878;2023-03-01T16:01:54;27.75;;;11.75;;
21251;SDS011;10784;50.578;17.878;2023-03-01T16:04:27;31.75;;;11.45;;
21251;SDS011;10784;50.578;17.878;2023-03-01T16:07:00;22.48;;;8.93;;
21251;SDS011;10784;50.578;17.878;2023-03-01T16:09:33;29.80;;;9.43;;
21251;SDS011;10784;50.578;17.878;2023-03-01T16:12:08;23.70;;;10.18;;
21251;SDS011;10784;50.578;17.878;2023-03-01T16:14:45;20.35;;;9.63;;
21251;SDS011;10784;50.578;17.878;2023-03-01T16:17:18;24.73;;;11.23;;
21251;SDS011;10784;50.578;17.878;2023-03-01T16:19:51;27.95;;;10.00;;
21251;SDS011;10784;50.578;17.878;2023-03-01T16:22:23;22.58;;;10.13;;
21251;SDS011;10784;50.578;17.878;2023-03-01T16:24:57;27.70;;;11.38;;
21251;SDS011;10784;50.578;17.878;2023-03-01T16:27:30;25.60;;;11.23;;
21251;SDS011;10784;50.578;17.878;2023-03-01T16:30:03;36.28;;;13.20;;
21251;SDS011;10784;50.578;17.878;2023-03-01T16:32:40;28.58;;;13.20;;
21251;SDS011;10784;50.578;17.878;2023-03-01T16:35:14;38.08;;;13.48;;
21251;SDS011;10784;50.578;17.878;2023-03-01T16:37:48;31.80;;;12.38;;
21251;SDS011;10784;50.578;17.878;2023-03-01T16:40:22;30.40;;;10.27;;
21251;SDS011;10784;50.578;17.878;2023-03-01T16:42:55;208.10;;;39.70;;
21251;SDS011;10784;50.578;17.878;2023-03-01T16:45:32;121.20;;;34.75;;
21251;SDS011;10784;50.578;17.878;2023-03-01T16:48:06;46.88;;;14.40;;
21251;SDS011;10784;50.578;17.878;2023-03-01T16:50:39;48.65;;;15.00;;